Time;durP1;ratioP1;P1;durP2;ratioP2;P2;SDS_P1;SDS_P2;PMS_P1;PMS_P2;Temp;Humidity;BMP_temperature;BMP_pressure;BME280_temperature;BME280_humidity;BME280_pressure;Samples;Min_cycle;Max_cycle;Signal;HPM_P1;HPM_P2
2022/05/10 00:00:55;;;;;;;1.70;1.47;;;;;;;15.64;44.61;101869.63;4977590;28;100328;-83
2022/05/10 00:03:25;;;;;;;1.43;1.33;;;;;;;15.59;44.15;101873.16;4989146;28;96572;-82
2022/05/10 00:05:51;;;;;;;2.40;1.70;;;;;;;15.57;44.08;101883.22;5006861;28;96933;-82
2022/05/10 00:08:17;;;;;;;2.50;1.70;;;;;;;15.54;44.08;101865.56;4988775;28;99918;-82
2022/05/10 00:10:45;;;;;;;3.10;1.70;;;;;;;15.52;44.19;101875.63;4987555;28;97663;-82
2022/05/10 00:13:10;;;;;;;1.90;1.80;;;;;;;15.46;44.18;101869.28;5001315;28;96901;-82
2022/05/10 00:15:36;;;;;;;3.00;1.60;;;;;;;15.48;44.13;101864.78;4995821;28;97331;-84
2022/05/10 00:18:02;;;;;;;2.00;1.17;;;;;;;15.45;44.26;101856.66;4992076;28;97071;-82
2022/05/10 00:20:27;;;;;;;1.97;1.67;;;;;;;15.45;44.31;101856.66;5005158;28;97734;-83
2022/05/10 00:22:53;;;;;;;5.90;1.50;;;;;;;15.41;44.38;101867.22;5000889;28;96778;-83
2022/05/10 00:25:24;;;;;;;3.50;1.80;;;;;;;15.35;44.70;101856.09;4986690;28;97062;-83
2022/05/10 00:27:49;;;;;;;2.23;1.73;;;;;;;15.31;44.57;101857.59;4998901;28;96878;-83
2022/05/10 00:30:15;;;;;;;2.60;1.70;;;;;;;15.32;44.66;101848.00;4989603;28;97460;-82
2022/05/10 00:32:42;;;;;;;1.43;1.33;;;;;;;15.28;44.72;101839.16;4985121;28;97199;-82
2022/05/10 00:35:16;;;;;;;2.63;1.63;;;;;;;15.30;45.09;101847.75;5011879;28;97489;-82
2022/05/10 00:37:47;;;;;;;1.83;1.60;;;;;;;15.26;45.13;101831.34;4988078;28;98916;-82
2022/05/10 00:40:16;;;;;;;4.30;2.10;;;;;;;15.25;44.91;101834.59;5004635;28;99667;-83
2022/05/10 00:43:03;;;;;;;2.20;1.80;;;;;;;15.20;45.07;101832.56;4997299;28;98424;-83
2022/05/10 00:45:58;;;;;;;2.70;1.40;;;;;;;15.15;46.14;101824.97;4999519;28;97341;-83
2022/05/10 00:48:43;;;;;;;4.43;1.60;;;;;;;15.14;46.03;101828.97;4976690;28;100848;-82
2022/05/10 00:51:18;;;;;;;4.80;1.43;;;;;;;15.14;45.19;101823.44;4988605;28;102787;-83
2022/05/10 00:53:50;;;;;;;1.63;1.50;;;;;;;15.10;45.79;101832.00;5006496;28;97020;-83
2022/05/10 00:56:30;;;;;;;1.80;1.70;;;;;;;15.11;45.73;101821.69;5007275;28;98592;-83
2022/05/10 00:59:22;;;;;;;2.00;1.80;;;;;;;15.08;45.66;101819.88;4996817;28;98919;-82
2022/05/10 01:01:56;;;;;;;1.87;1.60;;;;;;;15.09;45.22;101807.56;4983019;28;102257;-85
2022/05/10 01:04:35;;;;;;;3.97;1.80;;;;;;;15.07;45.74;101804.53;4993592;28;97336;-83
2022/05/10 01:07:32;;;;;;;6.03;1.97;;;;;;;15.03;46.25;101824.91;4995000;28;96636;-83
2022/05/10 01:10:05;;;;;;;7.07;1.90;;;;;;;15.05;45.76;101807.03;5002850;28;102841;-82
2022/05/10 01:12:34;;;;;;;1.70;1.60;;;;;;;15.02;45.47;101798.47;4991495;28;97466;-82
2022/05/10 01:15:09;;;;;;;2.47;1.63;;;;;;;15.03;45.99;101797.19;4991971;28;97185;-85
2022/05/10 01:17:35;;;;;;;2.07;1.80;;;;;;;14.99;45.41;101788.34;4988765;28;96882;-83
2022/05/10 01:20:00;;;;;;;1.83;1.30;;;;;;;14.99;45.35;101784.81;4991084;28;98103;-82
2022/05/10 01:22:51;;;;;;;1.57;1.40;;;;;;;14.98;46.36;101786.09;5008823;28;97808;-82
2022/05/10 01:25:37;;;;;;;3.10;1.90;;;;;;;14.94;46.72;101780.00;5002690;28;97063;-82
2022/05/10 01:28:16;;;;;;;1.90;1.77;;;;;;;14.88;46.67;101784.75;4985707;28;96916;-82
2022/05/10 01:30:42;;;;;;;2.00;1.50;;;;;;;14.87;45.74;101781.22;5004275;28;101806;-82
2022/05/10 01:33:30;;;;;;;3.93;1.73;;;;;;;14.84;46.29;101776.69;5006963;28;97471;-83
2022/05/10 01:36:01;;;;;;;1.83;1.20;;;;;;;14.81;45.98;101785.19;5005850;28;96760;-83
2022/05/10 01:38:34;;;;;;;1.70;1.60;;;;;;;14.79;46.23;101779.41;5009147;28;97332;-84
2022/05/10 01:41:11;;;;;;;2.43;1.60;;;;;;;14.75;46.65;101776.88;4989703;28;100413;-84
2022/05/10 01:43:49;;;;;;;2.10;1.70;;;;;;;14.71;46.92;101772.81;4985890;28;96985;-84
2022/05/10 01:46:22;;;;;;;2.77;2.03;;;;;;;14.67;46.58;101775.81;5003044;28;96970;-85
2022/05/10 01:48:52;;;;;;;1.80;1.70;;;;;;;14.67;46.26;101761.19;4982281;28;97033;-84
2022/05/10 01:51:38;;;;;;;1.83;1.60;;;;;;;14.61;47.52;101763.91;4992908;28;99885;-85
2022/05/10 01:54:30;;;;;;;1.90;1.80;;;;;;;14.60;47.02;101765.19;5006947;28;100518;-85
2022/05/10 01:56:55;;;;;;;2.87;1.50;;;;;;;14.55;46.32;101771.44;4990145;28;96962;-85
2022/05/10 01:59:20;;;;;;;1.93;1.27;;;;;;;14.54;46.30;101758.84;5006038;28;97101;-85
2022/05/10 02:01:46;;;;;;;2.33;1.50;;;;;;;14.56;46.46;101759.13;4986442;28;97876;-85
2022/05/10 02:04:20;;;;;;;1.80;1.70;;;;;;;14.53;46.58;101773.16;5004504;28;98638;-85
2022/05/10 02:06:54;;;;;;;2.37;1.53;;;;;;;14.51;47.01;101750.75;4984368;28;96769;-85
2022/05/10 02:09:31;;;;;;;2.13;1.73;;;;;;;14.50;46.92;101757.56;4983684;28;96779;-85
2022/05/10 02:11:58;;;;;;;2.60;1.73;;;;;;;14.47;46.67;101759.28;5000617;28;98356;-85
2022/05/10 02:14:34;;;;;;;2.10;1.67;;;;;;;14.41;46.67;101744.66;4985292;28;99498;-85
2022/05/10 02:17:13;;;;;;;1.87;1.70;;;;;;;14.44;47.64;101745.69;5002555;28;97101;-85
2022/05/10 02:19:47;;;;;;;2.00;1.87;;;;;;;14.42;46.84;101762.78;4985249;28;97157;-85
2022/05/10 02:22:46;;;;;;;2.70;1.70;;;;;;;14.39;48.02;101740.84;5005929;28;97277;-84
2022/05/10 02:25:17;;;;;;;2.13;1.77;;;;;;;14.37;47.46;101744.13;4967420;28;102522;-84
2022/05/10 02:27:52;;;;;;;1.73;1.43;;;;;;;14.34;47.51;101752.63;4989637;28;96854;-84
2022/05/10 02:30:24;;;;;;;1.80;1.70;;;;;;;14.31;47.36;101748.09;5007612;28;96845;-85
2022/05/10 02:33:07;;;;;;;1.50;1.40;;;;;;;14.28;47.17;101747.78;5002989;28;100001;-85
2022/05/10 02:35:50;;;;;;;5.10;1.80;;;;;;;14.25;47.96;101743.25;4990866;28;102296;-84
2022/05/10 02:38:30;;;;;;;1.60;1.50;;;;;;;14.22;47.72;101735.91;5003054;28;97110;-85
2022/05/10 02:40:59;;;;;;;1.70;1.60;;;;;;;14.16;47.41;101735.13;4984671;28;97230;-81
2022/05/10 02:43:28;;;;;;;2.73;2.30;;;;;;;14.14;47.38;101726.53;5005535;28;100148;-81
2022/05/10 02:45:57;;;;;;;1.50;1.40;;;;;;;14.11;47.34;101718.44;5002363;28;97995;-82
2022/05/10 02:48:27;;;;;;;1.83;1.73;;;;;;;14.09;47.49;101718.94;5007669;28;96763;-80
2022/05/10 02:50:52;;;;;;;2.33;1.77;;;;;;;14.06;47.40;101717.19;5005901;28;96842;-81
2022/05/10 02:53:18;;;;;;;1.43;1.33;;;;;;;14.05;47.49;101718.41;4987240;28;97758;-81
2022/05/10 02:55:57;;;;;;;3.50;2.63;;;;;;;14.04;48.15;101721.69;4991242;28;98170;-83
2022/05/10 02:58:47;;;;;;;2.07;1.77;;;;;;;14.01;47.69;101706.81;5001121;28;96984;-81
2022/05/10 03:01:31;;;;;;;2.60;2.10;;;;;;;14.01;48.30;101700.50;5005293;28;97042;-82
2022/05/10 03:03:57;;;;;;;1.50;1.50;;;;;;;13.97;47.76;101699.97;4989770;28;98495;-82
2022/05/10 03:06:25;;;;;;;2.00;1.90;;;;;;;13.98;47.75;101701.47;4987100;28;96906;-82
2022/05/10 03:08:51;;;;;;;3.03;1.57;;;;;;;13.97;47.37;101711.03;5007681;28;96807;-82
2022/05/10 03:11:19;;;;;;;2.10;1.70;;;;;;;13.97;47.69;101695.22;5008616;28;96763;-82
2022/05/10 03:13:47;;;;;;;2.13;1.30;;;;;;;13.98;47.61;101687.66;4989390;28;97027;-82
2022/05/10 03:16:13;;;;;;;1.83;1.70;;;;;;;13.98;47.85;101704.25;4989524;28;99757;-82
2022/05/10 03:18:39;;;;;;;1.97;1.83;;;;;;;13.95;47.94;101691.41;4989633;28;97233;-82
2022/05/10 03:21:04;;;;;;;1.73;1.57;;;;;;;13.97;47.76;101683.38;4990095;28;97357;-83
2022/05/10 03:23:30;;;;;;;3.90;1.53;;;;;;;13.98;47.85;101684.88;5004045;28;99861;-83
2022/05/10 03:25:57;;;;;;;1.60;1.50;;;;;;;13.98;48.07;101682.88;4987962;28;99486;-84
2022/05/10 03:28:22;;;;;;;2.07;1.87;;;;;;;13.99;47.89;101686.41;5006747;28;96637;-82
2022/05/10 03:30:48;;;;;;;3.47;2.00;;;;;;;13.99;47.92;101683.66;5003242;28;96970;-82
2022/05/10 03:33:14;;;;;;;2.60;1.87;;;;;;;13.99;48.06;101689.94;5002836;28;96807;-82
2022/05/10 03:35:40;;;;;;;2.27;1.80;;;;;;;13.99;48.07;101678.09;4995139;28;96802;-83
2022/05/10 03:38:06;;;;;;;2.53;1.90;;;;;;;13.97;48.26;101705.50;4988490;28;96889;-83
2022/05/10 03:40:31;;;;;;;2.80;1.40;;;;;;;13.93;48.21;101694.69;4989764;28;96790;-82
2022/05/10 03:42:56;;;;;;;1.70;1.60;;;;;;;13.91;48.39;101680.53;4988489;28;99219;-82
2022/05/10 03:45:23;;;;;;;2.17;1.93;;;;;;;13.92;48.29;101686.84;4990982;28;98030;-82
2022/05/10 03:47:50;;;;;;;1.67;1.57;;;;;;;13.94;48.37;101676.06;4997850;28;96995;-83
2022/05/10 03:50:19;;;;;;;3.23;2.30;;;;;;;13.94;48.53;101678.81;5007276;28;96640;-82
2022/05/10 03:52:45;;;;;;;1.60;1.50;;;;;;;13.97;48.27;101683.38;4979935;28;97064;-82
2022/05/10 03:55:13;;;;;;;3.00;1.57;;;;;;;14.00;48.73;101671.34;4985710;28;98256;-81
2022/05/10 03:57:39;;;;;;;1.63;1.53;;;;;;;13.99;48.68;101683.66;5001467;28;97668;-82
2022/05/10 04:00:07;;;;;;;2.77;2.13;;;;;;;14.04;48.76;101682.94;4995914;28;96940;-82
2022/05/10 04:02:33;;;;;;;3.10;1.50;;;;;;;14.07;48.72;101668.88;4984086;28;97023;-82
2022/05/10 04:04:58;;;;;;;2.70;1.90;;;;;;;14.10;48.78;101664.38;5001086;28;97259;-82
2022/05/10 04:07:23;;;;;;;2.53;2.33;;;;;;;14.12;48.98;101681.22;5002256;28;97228;-82
2022/05/10 04:09:49;;;;;;;3.07;1.93;;;;;;;14.15;48.97;101678.22;5002441;28;97055;-82
2022/05/10 04:12:14;;;;;;;2.53;2.00;;;;;;;14.21;48.84;101669.97;4997672;28;99472;-82
2022/05/10 04:14:39;;;;;;;1.70;1.60;;;;;;;14.22;48.91;101674.25;4996525;28;97641;-82
2022/05/10 04:17:17;;;;;;;2.50;1.90;;;;;;;14.30;48.97;101667.06;4953624;28;96854;-82
2022/05/10 04:19:54;;;;;;;1.43;1.33;;;;;;;14.35;49.31;101662.81;4939451;28;96899;-82
2022/05/10 04:22:21;;;;;;;1.50;1.40;;;;;;;14.37;48.80;101654.75;4986338;28;98834;-83
2022/05/10 04:24:47;;;;;;;2.70;1.47;;;;;;;14.42;48.76;101660.31;4993665;28;100582;-82
2022/05/10 04:27:12;;;;;;;1.93;1.70;;;;;;;14.48;48.92;101666.66;4984756;28;97122;-82
2022/05/10 04:29:38;;;;;;;1.70;1.60;;;;;;;14.51;48.81;101660.13;5008117;28;97286;-82
2022/05/10 04:32:04;;;;;;;1.60;1.50;;;;;;;14.57;49.05;101663.69;5000925;28;98327;-82
2022/05/10 04:34:29;;;;;;;1.90;1.60;;;;;;;14.62;48.95;101664.97;4992173;28;96816;-83
2022/05/10 04:36:55;;;;;;;6.10;1.93;;;;;;;14.66;49.08;101685.66;4989565;28;97142;-82
2022/05/10 04:39:20;;;;;;;2.27;2.07;;;;;;;14.70;49.07;101657.72;4991058;28;96970;-82
2022/05/10 04:41:49;;;;;;;3.03;1.70;;;;;;;14.74;49.13;101663.78;4978348;28;97185;-82
2022/05/10 04:44:15;;;;;;;2.07;1.90;;;;;;;14.78;49.05;101656.00;4987805;28;97766;-82
2022/05/10 04:46:42;;;;;;;5.93;1.60;;;;;;;14.79;49.31;101663.78;5001842;28;96905;-82
2022/05/10 04:49:09;;;;;;;2.07;1.90;;;;;;;14.84;49.14;101667.84;4988338;28;97401;-82
2022/05/10 04:51:36;;;;;;;3.53;2.17;;;;;;;14.91;49.26;101659.84;5002247;28;98725;-82
2022/05/10 04:54:02;;;;;;;2.33;2.00;;;;;;;14.98;49.15;101659.34;5005710;28;97021;-82
2022/05/10 04:56:27;;;;;;;3.93;2.03;;;;;;;15.05;49.07;101665.69;4992325;28;97324;-82
2022/05/10 04:58:54;;;;;;;1.57;1.47;;;;;;;15.10;49.33;101651.06;5002416;28;96832;-82
2022/05/10 05:01:22;;;;;;;2.80;1.90;;;;;;;15.18;49.21;101649.34;4989750;28;98099;-83
2022/05/10 05:03:49;;;;;;;4.60;2.00;;;;;;;15.25;49.34;101648.84;5009416;28;97689;-82
2022/05/10 05:06:18;;;;;;;1.80;1.70;;;;;;;15.31;49.57;101646.84;5009032;28;97040;-82
2022/05/10 05:08:44;;;;;;;1.97;1.80;;;;;;;15.36;49.51;101649.63;4989856;28;97083;-82
2022/05/10 05:11:10;;;;;;;4.53;2.07;;;;;;;15.41;49.49;101645.34;5004587;28;97086;-82
2022/05/10 05:13:36;;;;;;;2.63;1.80;;;;;;;15.49;49.45;101641.59;4991629;28;98585;-82
2022/05/10 05:16:02;;;;;;;1.97;1.73;;;;;;;15.59;49.43;101653.22;5005552;28;96941;-83
2022/05/10 05:18:28;;;;;;;2.10;1.97;;;;;;;15.63;49.45;101646.19;4985555;28;96956;-82
2022/05/10 05:20:53;;;;;;;3.47;1.80;;;;;;;15.69;49.75;101663.56;5006891;28;97082;-82
2022/05/10 05:23:20;;;;;;;2.60;1.40;;;;;;;15.77;49.46;101642.38;4987760;28;99003;-81
2022/05/10 05:25:46;;;;;;;2.40;2.00;;;;;;;15.81;49.46;101647.69;5010649;28;96991;-82
2022/05/10 05:28:12;;;;;;;4.60;1.70;;;;;;;15.86;49.63;101641.38;4998676;28;96876;-84
2022/05/10 05:30:41;;;;;;;1.67;1.50;;;;;;;15.90;49.46;101641.88;5007799;28;97550;-82
2022/05/10 05:33:06;;;;;;;3.80;1.70;;;;;;;16.00;49.74;101656.25;5022072;28;97806;-82
2022/05/10 05:35:34;;;;;;;3.77;2.70;;;;;;;16.07;49.46;101655.75;4996611;28;96780;-82
2022/05/10 05:37:59;;;;;;;2.10;1.90;;;;;;;16.18;49.38;101666.84;4989351;28;96919;-83
2022/05/10 05:40:25;;;;;;;1.90;1.57;;;;;;;16.23;49.52;101647.41;4989080;28;98754;-82
2022/05/10 05:42:51;;;;;;;2.10;1.93;;;;;;;16.32;49.52;101649.91;4989959;28;98229;-83
2022/05/10 05:45:19;;;;;;;2.87;2.10;;;;;;;16.40;49.32;101650.16;4991710;28;97086;-82
2022/05/10 05:47:45;;;;;;;3.50;1.90;;;;;;;16.48;49.18;101653.91;4981536;28;97156;-82
2022/05/10 05:50:14;;;;;;;3.37;1.70;;;;;;;16.54;49.52;101653.91;5005503;28;97034;-82
2022/05/10 05:52:40;;;;;;;2.10;1.90;;;;;;;16.63;49.55;101661.97;5005386;28;97815;-83
2022/05/10 05:55:06;;;;;;;1.73;1.60;;;;;;;16.70;49.35;101640.00;5002528;28;96769;-83
2022/05/10 05:57:32;;;;;;;2.10;1.90;;;;;;;16.77;49.47;101647.03;5007952;28;97049;-82
2022/05/10 06:00:00;;;;;;;4.43;1.63;;;;;;;16.86;49.50;101655.09;5006754;28;97605;-82
2022/05/10 06:02:26;;;;;;;3.10;1.90;;;;;;;16.96;49.47;101645.19;5001178;28;97670;-82
2022/05/10 06:04:53;;;;;;;1.70;1.60;;;;;;;17.06;49.41;101654.72;5000263;28;97053;-82
2022/05/10 06:07:20;;;;;;;2.10;2.00;;;;;;;17.14;49.38;101639.78;5006939;28;97301;-82
2022/05/10 06:09:47;;;;;;;3.17;1.90;;;;;;;17.28;49.46;101643.50;4989250;28;98633;-83
2022/05/10 06:12:14;;;;;;;1.90;1.80;;;;;;;17.41;49.33;101640.16;5000777;28;102079;-83
2022/05/10 06:14:40;;;;;;;1.60;1.50;;;;;;;17.53;49.26;101638.81;4995231;28;96925;-82
2022/05/10 06:17:07;;;;;;;1.63;1.53;;;;;;;17.67;49.25;101637.72;5004751;28;96934;-82
2022/05/10 06:19:39;;;;;;;2.40;1.50;;;;;;;17.79;49.10;101642.66;5005373;28;96708;-82
2022/05/10 06:22:06;;;;;;;3.07;1.60;;;;;;;17.92;49.00;101665.06;5002263;28;97923;-82
2022/05/10 06:24:32;;;;;;;2.17;2.03;;;;;;;17.97;48.99;101664.25;4986720;28;96890;-83
2022/05/10 06:26:59;;;;;;;2.03;1.83;;;;;;;18.15;48.94;101642.59;5005373;28;97248;-82
2022/05/10 06:29:24;;;;;;;2.33;2.13;;;;;;;18.27;48.93;101646.78;4988319;28;99743;-82
2022/05/10 06:31:50;;;;;;;1.90;1.80;;;;;;;18.38;48.81;101638.31;4997520;28;99192;-81
2022/05/10 06:34:16;;;;;;;1.83;1.57;;;;;;;18.45;48.79;101635.72;4990904;28;96934;-81
2022/05/10 06:36:43;;;;;;;1.70;1.60;;;;;;;18.55;48.77;101636.13;4987757;28;97281;-83
2022/05/10 06:39:08;;;;;;;3.20;1.67;;;;;;;18.68;48.65;101642.56;4991153;28;98581;-81
2022/05/10 06:41:35;;;;;;;1.97;1.53;;;;;;;18.83;48.64;101624.66;4991505;28;97404;-81
2022/05/10 06:44:02;;;;;;;2.17;2.07;;;;;;;18.95;48.53;101629.53;5008330;28;96560;-82
2022/05/10 06:46:32;;;;;;;5.33;2.23;;;;;;;19.10;48.34;101629.09;5000183;28;97112;-82
2022/05/10 06:48:57;;;;;;;1.53;1.43;;;;;;;19.25;48.44;101638.50;5007183;28;96955;-82
2022/05/10 06:51:24;;;;;;;2.20;1.60;;;;;;;19.41;48.22;101625.63;4987230;28;100758;-83
2022/05/10 06:53:50;;;;;;;2.23;1.97;;;;;;;19.61;48.18;101619.47;5007937;28;96878;-81
2022/05/10 06:56:16;;;;;;;3.83;1.67;;;;;;;19.80;48.03;101616.63;5005027;28;97013;-81
2022/05/10 06:58:42;;;;;;;4.83;2.20;;;;;;;19.97;47.91;101622.66;4995494;28;98615;-81
2022/05/10 07:01:12;;;;;;;2.40;1.60;;;;;;;20.16;47.74;101615.72;4980936;28;99291;-82
2022/05/10 07:03:49;;;;;;;3.70;2.10;;;;;;;20.34;47.39;101605.75;4977575;28;97513;-82
2022/05/10 07:06:17;;;;;;;2.10;1.90;;;;;;;20.50;47.22;101598.31;4985660;28;96725;-81
2022/05/10 07:08:43;;;;;;;2.93;1.87;;;;;;;20.62;47.11;101600.34;4988773;28;97568;-83
2022/05/10 07:11:09;;;;;;;2.23;1.70;;;;;;;20.80;46.79;101590.31;4997573;28;96904;-81
2022/05/10 07:13:35;;;;;;;2.80;1.97;;;;;;;21.00;46.56;101602.84;4987974;28;96809;-82
2022/05/10 07:16:02;;;;;;;2.23;1.57;;;;;;;21.15;46.26;101605.84;5005405;28;97434;-82
2022/05/10 07:18:27;;;;;;;2.00;1.80;;;;;;;21.30;46.00;101606.00;5000120;28;96865;-81
2022/05/10 07:20:53;;;;;;;1.70;1.60;;;;;;;21.42;45.89;101598.88;5004392;28;99766;-83
2022/05/10 07:23:24;;;;;;;2.90;2.33;;;;;;;21.52;45.42;101599.88;4996974;28;97200;-84
2022/05/10 07:25:50;;;;;;;2.20;1.90;;;;;;;21.64;45.45;101590.66;4994409;28;96909;-82
2022/05/10 07:28:16;;;;;;;2.13;1.93;;;;;;;21.74;45.30;101595.78;4996495;28;98862;-83
2022/05/10 07:30:42;;;;;;;1.63;1.53;;;;;;;21.81;45.07;101583.88;4990677;28;99574;-81
2022/05/10 07:33:08;;;;;;;3.47;1.60;;;;;;;21.91;44.92;101593.34;4990212;28;96944;-82
2022/05/10 07:38:19;;;;;;;2.00;1.90;;;;;;;22.21;44.63;101590.75;4999112;28;97079;-82
2022/05/10 07:40:47;;;;;;;1.97;1.80;;;;;;;22.34;44.80;101582.22;4982672;28;98502;-82
2022/05/10 07:43:13;;;;;;;5.23;2.70;;;;;;;22.49;44.49;101590.72;4988837;28;96761;-82
2022/05/10 07:45:41;;;;;;;4.70;2.20;;;;;;;22.57;44.10;101580.28;4989399;28;97470;-83
2022/05/10 07:48:06;;;;;;;1.73;1.63;;;;;;;22.64;44.15;101584.44;4991402;28;102777;-82
2022/05/10 07:50:33;;;;;;;2.00;1.90;;;;;;;22.71;43.96;101587.28;5002471;28;99134;-84
2022/05/10 07:53:00;;;;;;;8.60;2.17;;;;;;;22.79;43.78;101590.88;5006771;28;96813;-81
2022/05/10 07:55:26;;;;;;;2.80;2.50;;;;;;;22.85;43.76;101583.03;4989998;28;97047;-81
2022/05/10 07:57:52;;;;;;;4.30;2.03;;;;;;;23.01;43.70;101581.03;4988702;28;99780;-82
2022/05/10 08:00:17;;;;;;;5.63;2.00;;;;;;;23.11;43.57;101587.59;4989440;28;98493;-81
2022/05/10 08:02:44;;;;;;;3.57;1.90;;;;;;;23.21;43.48;101580.13;4994670;28;96999;-82
2022/05/10 08:05:17;;;;;;;2.30;2.17;;;;;;;23.32;43.14;101579.78;5004969;28;97086;-81
2022/05/10 08:07:43;;;;;;;2.53;1.90;;;;;;;23.41;42.95;101570.09;4986781;28;100147;-83
2022/05/10 08:10:08;;;;;;;4.23;2.47;;;;;;;23.54;42.98;101572.72;4994257;28;97374;-83
2022/05/10 08:12:34;;;;;;;2.10;2.00;;;;;;;23.70;42.90;101589.00;5008917;28;96936;-83
2022/05/10 08:15:00;;;;;;;2.50;2.23;;;;;;;23.85;42.51;101569.31;4989753;28;96946;-84
2022/05/10 08:17:25;;;;;;;2.17;2.00;;;;;;;24.03;42.38;101558.97;5006761;28;98858;-83
2022/05/10 08:19:51;;;;;;;5.13;2.40;;;;;;;24.18;42.18;101584.28;5006769;28;99030;-82
2022/05/10 08:22:17;;;;;;;1.93;1.80;;;;;;;24.32;42.06;101556.69;5003205;28;96726;-83
2022/05/10 08:24:42;;;;;;;2.63;2.43;;;;;;;24.45;41.80;101548.78;4981992;28;97028;-82
2022/05/10 08:27:08;;;;;;;2.13;1.90;;;;;;;24.60;41.69;101556.41;4980413;28;96944;-82
2022/05/10 08:29:33;;;;;;;3.33;1.90;;;;;;;24.76;41.58;101555.06;4993553;28;97324;-83
2022/05/10 08:31:59;;;;;;;1.77;1.67;;;;;;;24.87;41.39;101554.63;4985770;28;97385;-83
2022/05/10 08:34:24;;;;;;;2.67;2.47;;;;;;;25.02;41.20;101562.97;4975148;28;96643;-84
2022/05/10 08:36:50;;;;;;;4.00;2.47;;;;;;;25.09;41.14;101561.44;4981292;28;98422;-83
2022/05/10 08:39:15;;;;;;;4.20;2.10;;;;;;;25.18;40.95;101558.72;4994410;28;97865;-82
2022/05/10 08:41:45;;;;;;;2.00;1.90;;;;;;;25.25;41.02;101552.28;4980337;28;96804;-82
2022/05/10 08:44:20;;;;;;;2.07;1.87;;;;;;;25.33;40.16;101565.59;4990356;28;97023;-82
2022/05/10 08:46:51;;;;;;;2.10;1.93;;;;;;;25.38;40.61;101547.72;4991291;28;98482;-82
2022/05/10 08:49:25;;;;;;;2.33;2.13;;;;;;;25.43;39.87;101553.13;4982813;28;97911;-84
2022/05/10 08:51:52;;;;;;;2.10;2.00;;;;;;;25.46;40.58;101552.00;4990766;28;96563;-82
2022/05/10 08:54:17;;;;;;;2.37;1.80;;;;;;;25.52;40.13;101554.56;4980146;28;97192;-82
2022/05/10 08:56:53;;;;;;;2.40;2.20;;;;;;;25.64;39.69;101552.78;4978432;28;97941;-82
2022/05/10 08:59:34;;;;;;;2.10;2.00;;;;;;;25.82;39.99;101540.19;4974157;28;97196;-83
2022/05/10 09:02:04;;;;;;;1.90;1.80;;;;;;;25.92;39.66;101547.44;4978479;28;97359;-82
2022/05/10 09:04:45;;;;;;;2.10;2.00;;;;;;;26.03;39.53;101538.50;4984892;28;97264;-82
2022/05/10 09:07:22;;;;;;;1.90;1.70;;;;;;;26.16;38.65;101531.78;4985768;28;99519;-84
2022/05/10 09:10:02;;;;;;;1.90;1.80;;;;;;;26.25;38.27;101533.94;4970482;28;102640;-85
2022/05/10 09:12:29;;;;;;;2.13;1.93;;;;;;;26.32;39.11;101533.09;4990423;28;96734;-82
2022/05/10 09:14:59;;;;;;;3.33;2.20;;;;;;;26.41;38.66;101523.97;4998100;28;96983;-87
2022/05/10 09:17:29;;;;;;;2.30;2.10;;;;;;;26.46;38.55;101528.59;4980679;28;101899;-83
2022/05/10 09:19:55;;;;;;;2.13;1.83;;;;;;;26.53;38.50;101524.94;4990166;28;98461;-87
2022/05/10 09:22:41;;;;;;;1.63;1.53;;;;;;;26.67;37.44;101520.41;4980844;28;97371;-83
2022/05/10 09:25:43;;;;;;;1.80;1.70;;;;;;;26.95;37.22;101529.66;4996964;28;96972;-85
2022/05/10 09:28:27;;;;;;;2.80;2.00;;;;;;;27.26;37.01;101519.41;5011729;28;100985;-84
2022/05/10 09:36:29;;;;;;;2.10;2.00;;;;;;;27.71;35.94;101510.16;5014547;28;96908;-84
2022/05/10 09:39:01;;;;;;;1.90;1.80;;;;;;;27.70;35.90;101497.34;5014638;28;97077;-84
2022/05/10 09:41:32;;;;;;;2.47;2.27;;;;;;;27.70;35.71;101514.31;5009723;28;96823;-86
2022/05/10 09:44:14;;;;;;;2.50;1.83;;;;;;;27.70;35.57;101502.25;5020427;28;97004;-83
2022/05/10 09:46:39;;;;;;;2.20;2.10;;;;;;;27.85;36.46;101499.91;5016794;28;96663;-86
2022/05/10 09:49:05;;;;;;;2.10;1.97;;;;;;;27.98;36.35;101504.41;4991367;28;96997;-85
2022/05/10 09:51:41;;;;;;;1.90;1.80;;;;;;;28.17;35.28;101488.19;4991246;28;96786;-86
2022/05/10 09:54:25;;;;;;;2.83;2.60;;;;;;;28.29;35.12;101507.34;5009896;28;96927;-84
2022/05/10 09:56:55;;;;;;;2.00;1.90;;;;;;;28.37;35.42;101480.41;4997761;28;96756;-86
2022/05/10 09:59:21;;;;;;;2.40;2.20;;;;;;;28.47;35.65;101486.03;5006882;28;97214;-85
2022/05/10 10:01:56;;;;;;;3.93;2.20;;;;;;;28.49;34.92;101486.94;5004185;28;97555;-86
2022/05/10 10:04:27;;;;;;;2.80;2.20;;;;;;;28.49;35.56;101483.34;4987198;28;96956;-85
2022/05/10 10:07:10;;;;;;;2.90;1.90;;;;;;;28.45;34.73;101474.56;5002277;28;96999;-85
2022/05/10 10:09:38;;;;;;;3.47;2.40;;;;;;;28.50;35.67;101479.19;4987586;28;98615;-85
2022/05/10 10:12:11;;;;;;;2.27;2.07;;;;;;;28.59;35.22;101481.28;4990388;28;98172;-86
2022/05/10 10:14:41;;;;;;;2.73;2.53;;;;;;;28.67;35.46;101476.94;4990105;28;96931;-85
2022/05/10 10:17:18;;;;;;;3.13;2.37;;;;;;;28.70;34.02;101472.16;4991300;28;97221;-86
2022/05/10 10:19:49;;;;;;;2.30;2.17;;;;;;;28.72;34.55;101463.78;5002126;28;96750;-87
2022/05/10 10:22:22;;;;;;;3.33;2.37;;;;;;;28.58;34.74;101457.13;4987234;28;98687;-83
2022/05/10 10:24:55;;;;;;;2.73;2.53;;;;;;;28.60;33.68;101458.00;5003689;28;97415;-85
2022/05/10 10:27:33;;;;;;;3.93;2.40;;;;;;;28.63;33.80;101464.56;4988902;28;97191;-86
2022/05/10 10:30:06;;;;;;;2.10;2.00;;;;;;;28.73;34.62;101443.34;5005027;28;101621;-84
2022/05/10 10:32:44;;;;;;;2.13;1.93;;;;;;;28.84;34.32;101433.47;4999208;28;103273;-84
2022/05/10 10:35:15;;;;;;;3.97;2.00;;;;;;;29.11;34.00;101439.59;5001835;28;96590;-87
2022/05/10 10:37:50;;;;;;;3.07;2.07;;;;;;;29.23;34.51;101434.03;5002784;28;96764;-86
2022/05/10 10:40:27;;;;;;;2.30;2.10;;;;;;;29.33;34.38;101432.63;4988552;28;97063;-86
2022/05/10 10:42:53;;;;;;;3.33;2.67;;;;;;;29.45;33.93;101430.59;4994387;28;96861;-86
2022/05/10 10:45:26;;;;;;;3.10;2.20;;;;;;;29.65;33.63;101434.03;4998836;28;97129;-85
2022/05/10 10:48:03;;;;;;;5.90;2.50;;;;;;;29.84;33.62;101433.19;4986759;28;97187;-87
2022/05/10 10:50:35;;;;;;;2.17;2.00;;;;;;;29.87;32.55;101420.59;4993104;28;99966;-85
2022/05/10 10:53:01;;;;;;;3.00;2.77;;;;;;;29.84;33.19;101421.84;4992082;28;97966;-84
2022/05/10 10:55:40;;;;;;;2.40;2.00;;;;;;;29.67;32.45;101417.91;5008410;28;96663;-88
2022/05/10 10:58:32;;;;;;;2.53;1.77;;;;;;;29.48;32.41;101408.81;5001828;28;96764;-87
2022/05/10 11:01:04;;;;;;;2.60;2.40;;;;;;;29.39;32.73;101409.59;5003253;28;102275;-82
2022/05/10 11:03:34;;;;;;;2.07;1.93;;;;;;;29.35;32.85;101412.94;4981187;28;100324;-87
2022/05/10 11:06:13;;;;;;;4.53;2.03;;;;;;;29.34;33.19;101416.34;4987051;28;97197;-90
2022/05/10 11:08:44;;;;;;;2.07;1.97;;;;;;;29.45;32.88;101412.84;4996016;28;96937;-84
2022/05/10 11:11:15;;;;;;;1.67;1.57;;;;;;;29.50;32.30;101401.16;4990370;28;96861;-85
2022/05/10 11:14:09;;;;;;;2.13;1.90;;;;;;;29.56;32.12;101393.06;4991901;28;96959;-84
2022/05/10 11:16:38;;;;;;;2.20;2.00;;;;;;;29.55;32.17;101385.16;4998210;28;97390;-83
2022/05/10 11:19:28;;;;;;;2.20;2.10;;;;;;;29.65;32.32;101397.16;4988895;28;96918;-85
2022/05/10 11:22:40;;;;;;;3.10;2.30;;;;;;;29.98;31.74;101397.19;4991464;28;100897;-83
2022/05/10 11:25:30;;;;;;;2.20;2.10;;;;;;;30.31;31.18;101389.41;4939502;28;100726;-86
2022/05/10 11:28:17;;;;;;;1.80;1.67;;;;;;;30.45;31.17;101386.69;4988669;28;97158;-85
2022/05/10 11:31:10;;;;;;;2.60;2.40;;;;;;;30.36;31.13;101385.47;4996992;28;96843;-84
2022/05/10 11:33:53;;;;;;;2.00;1.90;;;;;;;30.15;32.13;101374.16;4995992;28;102191;-86
2022/05/10 11:36:40;;;;;;;4.00;2.23;;;;;;;29.99;31.10;101378.81;4995220;28;97114;-85
2022/05/10 11:39:08;;;;;;;2.17;1.97;;;;;;;30.02;31.83;101377.56;4989092;28;97176;-83
2022/05/10 11:41:49;;;;;;;2.30;2.13;;;;;;;30.18;30.50;101370.09;4989637;28;97245;-87
2022/05/10 11:44:21;;;;;;;1.73;1.63;;;;;;;30.36;31.42;101369.16;4996868;28;100779;-84
2022/05/10 11:47:04;;;;;;;2.50;2.40;;;;;;;30.59;30.24;101374.09;4991793;28;97400;-84
2022/05/10 11:49:51;;;;;;;3.23;2.10;;;;;;;30.70;30.71;101366.94;5001938;28;97232;-86